Russell, KS

7:17 AM CDT on August 30, 2015 (GMT -0500)
Ruppenthal Middle School | | Change Station
CLOSE
Current Station
Personal Weather Station
Location: Russell, KS
Elevation: 1854 ft
Nearby Weather Stations
Active Advisory: Dense Fog Advisory Active Notice: Public Information Statement

Elev 1854 ft 38.89 °N, 98.86 °W | Updated 2 minutes ago

Fog
Fog
56.4 °F
Feels Like 56.4 °F
N
2.0
Wind Variable Wind from SW
Gusts 4.0 mph

Today
High -- | Low -- °F
--% Chance of Precip.
Yesterday
High -- | Low -- °F
Precip. -- in
7:02 AM 8:09 PM
Full, 99% visible
Pressure 30.01 in
Visibility 0.2 miles
Clouds
Dew Point 55 °F
Humidity 96%
Rainfall 0.00 in
Snow Depth Not available.
UV Not available.
Pollen 10.20 out of 12
Air Quality Not available.
Flu Activity Not available.
METAR KRSL 301153Z AUTO 20004KT 1/4SM FG VV002 12/12 A3004 RMK AO2 SLP162 T01170117 10156 20117 55000
Pressure 30.01 in
Visibility 0.2 miles
Clouds
Dew Point 55 °F
Humidity 96%
Rainfall 0.00 in
Snow Depth Not available.
UV Not available.
Pollen 10.20 out of 12
Air Quality Not available.
Flu Activity Not available.
METAR KRSL 301153Z AUTO 20004KT 1/4SM FG VV002 12/12 A3004 RMK AO2 SLP162 T01170117 10156 20117 55000

10-Day Weather Forecast

×

Almanac

Astronomy

Aug. 30, 2015 Rise Set
Actual Time
Civil Twilight
Nautical Twilight
Astronomical Twilight
Moon
Length of Visible Light
Length of Day
Tomorrow will be .
, % of the Moon is Illuminated

Today's Extremes

State Highs State Lows

Community

WunderPhotos

Upload Photos

1,850,936 photos uploaded!

WunderBlogs® & News

Nearby

Air Quality

  Air Quality AQ Index Pollutant
Not available.

Snow Depth

Station Depth Elevation

Earthquake Activity

City Distance Mag. Time & Date
Minimum magnitude displayed is 2.5.

Coastal Water Temperatures

Place Temperature

Stations

Nearby Weather Stations

Station Location Temp. Windchill Dew Point Humidity Wind Precip. Elev Updated Type
                   
Dense Fog Advisory
Statement as of 4:13 AM CDT on August 30, 2015

... Dense fog advisory in effect until 10 am CDT this morning...

The National Weather Service in Wichita has issued a dense fog
advisory... which is in effect until 10 am CDT this morning.

* Timing... conditions will continue to deteriorate through 8 am...
with conditions expected to improve by 10 am.

* Impacts... areas with visibilities of less that one quarter mile
are likely. The dense fog is likely along highways 50 and
56... I-70 and I-135 between Newton and Salina. Abrupt changes in
visibilities are also likely across the Flint Hills.

Precautionary/preparedness actions...

A dense fog advisory means visibilities will frequently be
reduced to less than one quarter mile. If driving... slow down.
Use your headlights and leave plenty of distance ahead of you.



Howerton